sensor_id;sensor_type;location;lat;lon;timestamp;P1;durP1;ratioP1;P2;durP2;ratioP2
72156;SDS011;60035;52.122;5.406;2023-05-07T00:02:03;16.02;;;9.18;;
72156;SDS011;60035;52.122;5.406;2023-05-07T00:04:30;12.73;;;9.07;;
72156;SDS011;60035;52.122;5.406;2023-05-07T00:07:03;13.75;;;9.43;;
72156;SDS011;60035;52.122;5.406;2023-05-07T00:09:29;13.15;;;8.90;;
72156;SDS011;60035;52.122;5.406;2023-05-07T00:11:56;13.32;;;8.88;;
72156;SDS011;60035;52.122;5.406;2023-05-07T00:14:23;15.38;;;9.85;;
72156;SDS011;60035;52.122;5.406;2023-05-07T00:16:49;12.93;;;8.38;;
72156;SDS011;60035;52.122;5.406;2023-05-07T00:19:16;15.00;;;9.68;;
72156;SDS011;60035;52.122;5.406;2023-05-07T00:21:43;16.08;;;9.35;;
72156;SDS011;60035;52.122;5.406;2023-05-07T00:24:09;12.70;;;9.13;;
72156;SDS011;60035;52.122;5.406;2023-05-07T00:26:36;13.45;;;9.35;;
72156;SDS011;60035;52.122;5.406;2023-05-07T00:29:02;11.98;;;7.60;;
72156;SDS011;60035;52.122;5.406;2023-05-07T00:31:29;13.88;;;9.00;;
72156;SDS011;60035;52.122;5.406;2023-05-07T00:33:55;13.75;;;9.02;;
72156;SDS011;60035;52.122;5.406;2023-05-07T00:36:22;12.85;;;9.15;;
72156;SDS011;60035;52.122;5.406;2023-05-07T00:38:48;13.98;;;8.93;;
72156;SDS011;60035;52.122;5.406;2023-05-07T00:41:15;14.70;;;9.10;;
72156;SDS011;60035;52.122;5.406;2023-05-07T00:43:42;12.15;;;9.02;;
72156;SDS011;60035;52.122;5.406;2023-05-07T00:46:08;14.60;;;9.13;;
72156;SDS011;60035;52.122;5.406;2023-05-07T00:48:36;13.95;;;9.00;;
72156;SDS011;60035;52.122;5.406;2023-05-07T00:51:03;13.10;;;7.82;;
72156;SDS011;60035;52.122;5.406;2023-05-07T00:53:29;14.35;;;9.10;;
72156;SDS011;60035;52.122;5.406;2023-05-07T00:55:57;14.23;;;9.32;;
72156;SDS011;60035;52.122;5.406;2023-05-07T00:58:23;14.60;;;8.95;;
72156;SDS011;60035;52.122;5.406;2023-05-07T01:00:50;13.95;;;8.88;;
72156;SDS011;60035;52.122;5.406;2023-05-07T01:03:18;12.73;;;8.55;;
72156;SDS011;60035;52.122;5.406;2023-05-07T01:05:45;13.10;;;8.63;;
72156;SDS011;60035;52.122;5.406;2023-05-07T01:08:14;13.70;;;8.63;;
72156;SDS011;60035;52.122;5.406;2023-05-07T01:10:41;14.32;;;9.30;;
72156;SDS011;60035;52.122;5.406;2023-05-07T01:13:09;14.82;;;9.63;;
72156;SDS011;60035;52.122;5.406;2023-05-07T01:15:37;13.80;;;9.02;;
72156;SDS011;60035;52.122;5.406;2023-05-07T01:18:04;13.93;;;9.45;;
72156;SDS011;60035;52.122;5.406;2023-05-07T01:20:31;13.63;;;9.05;;
72156;SDS011;60035;52.122;5.406;2023-05-07T01:22:58;12.82;;;8.45;;
72156;SDS011;60035;52.122;5.406;2023-05-07T01:25:26;14.02;;;8.48;;
72156;SDS011;60035;52.122;5.406;2023-05-07T01:27:53;13.07;;;8.60;;
72156;SDS011;60035;52.122;5.406;2023-05-07T01:30:20;12.35;;;7.50;;
72156;SDS011;60035;52.122;5.406;2023-05-07T01:33:02;11.57;;;8.20;;
72156;SDS011;60035;52.122;5.406;2023-05-07T01:35:37;14.00;;;9.27;;
72156;SDS011;60035;52.122;5.406;2023-05-07T01:38:06;14.70;;;9.57;;
72156;SDS011;60035;52.122;5.406;2023-05-07T01:40:34;13.13;;;8.68;;
72156;SDS011;60035;52.122;5.406;2023-05-07T01:43:04;13.73;;;8.70;;
72156;SDS011;60035;52.122;5.406;2023-05-07T01:45:31;14.73;;;9.00;;
72156;SDS011;60035;52.122;5.406;2023-05-07T01:48:00;14.20;;;9.45;;
72156;SDS011;60035;52.122;5.406;2023-05-07T01:50:28;12.80;;;9.20;;
72156;SDS011;60035;52.122;5.406;2023-05-07T01:52:56;12.85;;;8.98;;
72156;SDS011;60035;52.122;5.406;2023-05-07T01:55:22;12.88;;;9.40;;
72156;SDS011;60035;52.122;5.406;2023-05-07T01:57:49;15.38;;;9.73;;
72156;SDS011;60035;52.122;5.406;2023-05-07T02:00:16;12.32;;;9.02;;
72156;SDS011;60035;52.122;5.406;2023-05-07T02:02:43;12.80;;;9.00;;
72156;SDS011;60035;52.122;5.406;2023-05-07T02:05:10;12.88;;;8.75;;
72156;SDS011;60035;52.122;5.406;2023-05-07T02:07:37;14.10;;;9.80;;
72156;SDS011;60035;52.122;5.406;2023-05-07T02:10:03;15.50;;;9.82;;
72156;SDS011;60035;52.122;5.406;2023-05-07T02:12:31;14.25;;;9.60;;
72156;SDS011;60035;52.122;5.406;2023-05-07T02:14:57;12.65;;;8.85;;
72156;SDS011;60035;52.122;5.406;2023-05-07T02:17:24;11.85;;;8.57;;
72156;SDS011;60035;52.122;5.406;2023-05-07T02:19:51;14.10;;;8.77;;
72156;SDS011;60035;52.122;5.406;2023-05-07T02:22:18;15.68;;;9.98;;
72156;SDS011;60035;52.122;5.406;2023-05-07T02:24:44;11.95;;;8.45;;
72156;SDS011;60035;52.122;5.406;2023-05-07T02:27:11;13.82;;;9.15;;
72156;SDS011;60035;52.122;5.406;2023-05-07T02:29:37;13.40;;;8.18;;
72156;SDS011;60035;52.122;5.406;2023-05-07T02:32:04;14.23;;;10.20;;
72156;SDS011;60035;52.122;5.406;2023-05-07T02:34:31;14.02;;;8.38;;
72156;SDS011;60035;52.122;5.406;2023-05-07T02:36:57;13.35;;;9.52;;
72156;SDS011;60035;52.122;5.406;2023-05-07T02:39:24;13.27;;;9.95;;
72156;SDS011;60035;52.122;5.406;2023-05-07T02:41:51;13.40;;;8.70;;
72156;SDS011;60035;52.122;5.406;2023-05-07T02:44:17;14.93;;;9.82;;
72156;SDS011;60035;52.122;5.406;2023-05-07T02:46:44;14.82;;;9.73;;
72156;SDS011;60035;52.122;5.406;2023-05-07T02:49:10;15.05;;;9.40;;
72156;SDS011;60035;52.122;5.406;2023-05-07T02:51:37;14.93;;;9.25;;
72156;SDS011;60035;52.122;5.406;2023-05-07T02:54:03;15.88;;;9.75;;
72156;SDS011;60035;52.122;5.406;2023-05-07T02:56:30;13.75;;;8.55;;
72156;SDS011;60035;52.122;5.406;2023-05-07T02:58:57;14.35;;;9.90;;
72156;SDS011;60035;52.122;5.406;2023-05-07T03:01:24;14.38;;;9.02;;
72156;SDS011;60035;52.122;5.406;2023-05-07T03:03:51;14.23;;;9.63;;
72156;SDS011;60035;52.122;5.406;2023-05-07T03:06:18;15.43;;;10.20;;
72156;SDS011;60035;52.122;5.406;2023-05-07T03:08:44;15.98;;;10.02;;
72156;SDS011;60035;52.122;5.406;2023-05-07T03:11:11;14.45;;;9.57;;
72156;SDS011;60035;52.122;5.406;2023-05-07T03:13:37;13.23;;;9.27;;
72156;SDS011;60035;52.122;5.406;2023-05-07T03:16:04;15.68;;;9.90;;
72156;SDS011;60035;52.122;5.406;2023-05-07T03:18:31;15.52;;;9.07;;
72156;SDS011;60035;52.122;5.406;2023-05-07T03:20:58;14.82;;;8.80;;
72156;SDS011;60035;52.122;5.406;2023-05-07T03:23:25;15.05;;;10.07;;
72156;SDS011;60035;52.122;5.406;2023-05-07T03:25:51;16.15;;;9.63;;
72156;SDS011;60035;52.122;5.406;2023-05-07T03:28:18;14.73;;;10.07;;
72156;SDS011;60035;52.122;5.406;2023-05-07T03:30:44;13.98;;;9.23;;
72156;SDS011;60035;52.122;5.406;2023-05-07T03:33:11;16.20;;;10.60;;
72156;SDS011;60035;52.122;5.406;2023-05-07T03:35:37;14.70;;;9.85;;
72156;SDS011;60035;52.122;5.406;2023-05-07T03:38:04;16.15;;;9.88;;
72156;SDS011;60035;52.122;5.406;2023-05-07T03:40:31;15.88;;;10.50;;
72156;SDS011;60035;52.122;5.406;2023-05-07T03:42:57;15.98;;;9.77;;
72156;SDS011;60035;52.122;5.406;2023-05-07T03:45:25;16.23;;;10.27;;
72156;SDS011;60035;52.122;5.406;2023-05-07T03:47:52;16.48;;;10.80;;
72156;SDS011;60035;52.122;5.406;2023-05-07T03:50:19;14.85;;;9.77;;
72156;SDS011;60035;52.122;5.406;2023-05-07T03:52:46;16.98;;;10.38;;
72156;SDS011;60035;52.122;5.406;2023-05-07T03:55:12;15.73;;;10.45;;
72156;SDS011;60035;52.122;5.406;2023-05-07T03:57:39;17.23;;;11.13;;
72156;SDS011;60035;52.122;5.406;2023-05-07T04:00:06;16.00;;;10.20;;
72156;SDS011;60035;52.122;5.406;2023-05-07T04:02:33;15.55;;;10.98;;
72156;SDS011;60035;52.122;5.406;2023-05-07T04:05:00;17.10;;;11.20;;
72156;SDS011;60035;52.122;5.406;2023-05-07T04:07:26;14.07;;;9.82;;
72156;SDS011;60035;52.122;5.406;2023-05-07T04:09:53;16.45;;;10.95;;
72156;SDS011;60035;52.122;5.406;2023-05-07T04:12:20;15.70;;;10.30;;
72156;SDS011;60035;52.122;5.406;2023-05-07T04:14:46;15.55;;;10.35;;
72156;SDS011;60035;52.122;5.406;2023-05-07T04:17:13;17.40;;;10.27;;
72156;SDS011;60035;52.122;5.406;2023-05-07T04:19:39;17.08;;;10.55;;
72156;SDS011;60035;52.122;5.406;2023-05-07T04:22:11;19.35;;;11.07;;
72156;SDS011;60035;52.122;5.406;2023-05-07T04:24:38;16.60;;;10.43;;
72156;SDS011;60035;52.122;5.406;2023-05-07T04:27:04;17.80;;;10.80;;
72156;SDS011;60035;52.122;5.406;2023-05-07T04:29:32;17.70;;;10.50;;
72156;SDS011;60035;52.122;5.406;2023-05-07T04:31:59;17.92;;;10.50;;
72156;SDS011;60035;52.122;5.406;2023-05-07T04:34:25;16.77;;;10.55;;
72156;SDS011;60035;52.122;5.406;2023-05-07T04:36:52;18.30;;;11.40;;
72156;SDS011;60035;52.122;5.406;2023-05-07T04:39:19;16.98;;;10.75;;
72156;SDS011;60035;52.122;5.406;2023-05-07T04:41:45;16.33;;;10.55;;
72156;SDS011;60035;52.122;5.406;2023-05-07T04:44:12;16.20;;;9.48;;
72156;SDS011;60035;52.122;5.406;2023-05-07T04:46:39;15.50;;;9.98;;
72156;SDS011;60035;52.122;5.406;2023-05-07T04:49:05;16.00;;;10.27;;
72156;SDS011;60035;52.122;5.406;2023-05-07T04:51:32;16.67;;;10.18;;
72156;SDS011;60035;52.122;5.406;2023-05-07T04:53:59;17.95;;;11.30;;
72156;SDS011;60035;52.122;5.406;2023-05-07T04:56:27;16.92;;;11.40;;
72156;SDS011;60035;52.122;5.406;2023-05-07T04:58:55;17.50;;;11.70;;
72156;SDS011;60035;52.122;5.406;2023-05-07T05:01:22;17.90;;;11.65;;
72156;SDS011;60035;52.122;5.406;2023-05-07T05:03:48;18.33;;;11.40;;
72156;SDS011;60035;52.122;5.406;2023-05-07T05:06:15;18.40;;;11.07;;
72156;SDS011;60035;52.122;5.406;2023-05-07T05:08:41;19.35;;;10.07;;
72156;SDS011;60035;52.122;5.406;2023-05-07T05:11:08;17.55;;;11.07;;
72156;SDS011;60035;52.122;5.406;2023-05-07T05:13:34;19.38;;;11.20;;
72156;SDS011;60035;52.122;5.406;2023-05-07T05:16:01;23.85;;;10.18;;
72156;SDS011;60035;52.122;5.406;2023-05-07T05:18:28;18.45;;;11.93;;
72156;SDS011;60035;52.122;5.406;2023-05-07T05:20:54;17.50;;;10.88;;
72156;SDS011;60035;52.122;5.406;2023-05-07T05:23:21;17.25;;;11.00;;
72156;SDS011;60035;52.122;5.406;2023-05-07T05:25:48;18.35;;;11.45;;
72156;SDS011;60035;52.122;5.406;2023-05-07T05:28:14;16.50;;;9.82;;
72156;SDS011;60035;52.122;5.406;2023-05-07T05:30:41;16.80;;;10.43;;
72156;SDS011;60035;52.122;5.406;2023-05-07T05:33:07;16.35;;;11.23;;
72156;SDS011;60035;52.122;5.406;2023-05-07T05:35:34;16.58;;;11.00;;
72156;SDS011;60035;52.122;5.406;2023-05-07T05:38:01;18.42;;;11.40;;
72156;SDS011;60035;52.122;5.406;2023-05-07T05:40:28;20.10;;;11.18;;
72156;SDS011;60035;52.122;5.406;2023-05-07T05:42:55;20.35;;;10.98;;
72156;SDS011;60035;52.122;5.406;2023-05-07T05:45:22;18.83;;;11.25;;
72156;SDS011;60035;52.122;5.406;2023-05-07T05:47:48;16.25;;;10.02;;
72156;SDS011;60035;52.122;5.406;2023-05-07T05:50:15;18.67;;;11.70;;
72156;SDS011;60035;52.122;5.406;2023-05-07T05:52:41;19.52;;;11.50;;
72156;SDS011;60035;52.122;5.406;2023-05-07T05:55:08;21.05;;;12.32;;
72156;SDS011;60035;52.122;5.406;2023-05-07T05:57:35;17.83;;;11.65;;
72156;SDS011;60035;52.122;5.406;2023-05-07T06:00:02;18.77;;;11.85;;
72156;SDS011;60035;52.122;5.406;2023-05-07T06:02:29;19.40;;;12.10;;
72156;SDS011;60035;52.122;5.406;2023-05-07T06:04:56;18.70;;;11.68;;
72156;SDS011;60035;52.122;5.406;2023-05-07T06:07:23;19.73;;;11.90;;
72156;SDS011;60035;52.122;5.406;2023-05-07T06:09:49;21.55;;;12.18;;
72156;SDS011;60035;52.122;5.406;2023-05-07T06:12:16;20.35;;;12.10;;
72156;SDS011;60035;52.122;5.406;2023-05-07T06:14:43;17.50;;;11.98;;
72156;SDS011;60035;52.122;5.406;2023-05-07T06:17:09;18.10;;;12.52;;
72156;SDS011;60035;52.122;5.406;2023-05-07T06:19:36;22.67;;;12.50;;
72156;SDS011;60035;52.122;5.406;2023-05-07T06:22:03;18.42;;;11.65;;
72156;SDS011;60035;52.122;5.406;2023-05-07T06:24:29;20.52;;;12.80;;
72156;SDS011;60035;52.122;5.406;2023-05-07T06:26:56;18.30;;;12.27;;
72156;SDS011;60035;52.122;5.406;2023-05-07T06:29:24;19.83;;;13.57;;
72156;SDS011;60035;52.122;5.406;2023-05-07T06:31:56;21.15;;;12.20;;
72156;SDS011;60035;52.122;5.406;2023-05-07T06:34:23;21.58;;;13.55;;
72156;SDS011;60035;52.122;5.406;2023-05-07T06:36:49;19.48;;;10.82;;
72156;SDS011;60035;52.122;5.406;2023-05-07T06:39:16;19.75;;;13.02;;
72156;SDS011;60035;52.122;5.406;2023-05-07T06:41:43;20.88;;;12.38;;
72156;SDS011;60035;52.122;5.406;2023-05-07T06:44:09;18.38;;;12.00;;
72156;SDS011;60035;52.122;5.406;2023-05-07T06:46:36;20.58;;;12.85;;
72156;SDS011;60035;52.122;5.406;2023-05-07T06:49:02;22.20;;;13.20;;
72156;SDS011;60035;52.122;5.406;2023-05-07T06:51:29;21.33;;;12.55;;
72156;SDS011;60035;52.122;5.406;2023-05-07T06:53:56;19.27;;;11.98;;
72156;SDS011;60035;52.122;5.406;2023-05-07T06:56:22;19.65;;;12.80;;
72156;SDS011;60035;52.122;5.406;2023-05-07T06:58:49;20.27;;;12.77;;
72156;SDS011;60035;52.122;5.406;2023-05-07T07:01:16;19.63;;;13.73;;
72156;SDS011;60035;52.122;5.406;2023-05-07T07:03:42;18.38;;;12.38;;
72156;SDS011;60035;52.122;5.406;2023-05-07T07:06:09;20.02;;;13.15;;
72156;SDS011;60035;52.122;5.406;2023-05-07T07:08:35;20.20;;;13.35;;
72156;SDS011;60035;52.122;5.406;2023-05-07T07:11:05;19.73;;;12.90;;
72156;SDS011;60035;52.122;5.406;2023-05-07T07:13:32;18.25;;;11.93;;
72156;SDS011;60035;52.122;5.406;2023-05-07T07:15:59;20.20;;;13.07;;
72156;SDS011;60035;52.122;5.406;2023-05-07T07:18:26;20.20;;;12.60;;
72156;SDS011;60035;52.122;5.406;2023-05-07T07:20:53;20.15;;;13.57;;
72156;SDS011;60035;52.122;5.406;2023-05-07T07:23:20;19.63;;;12.98;;
72156;SDS011;60035;52.122;5.406;2023-05-07T07:25:47;22.23;;;13.27;;
72156;SDS011;60035;52.122;5.406;2023-05-07T07:28:13;21.13;;;12.63;;
72156;SDS011;60035;52.122;5.406;2023-05-07T07:30:40;19.30;;;12.75;;
72156;SDS011;60035;52.122;5.406;2023-05-07T07:33:09;21.13;;;13.25;;
72156;SDS011;60035;52.122;5.406;2023-05-07T07:35:36;18.55;;;12.82;;
72156;SDS011;60035;52.122;5.406;2023-05-07T07:38:02;22.13;;;13.18;;
72156;SDS011;60035;52.122;5.406;2023-05-07T07:40:29;19.83;;;13.38;;
72156;SDS011;60035;52.122;5.406;2023-05-07T07:42:56;20.50;;;13.43;;
72156;SDS011;60035;52.122;5.406;2023-05-07T07:45:23;19.23;;;11.23;;
72156;SDS011;60035;52.122;5.406;2023-05-07T07:47:49;18.80;;;12.73;;
72156;SDS011;60035;52.122;5.406;2023-05-07T07:50:16;19.25;;;12.40;;
72156;SDS011;60035;52.122;5.406;2023-05-07T07:53:01;19.55;;;13.00;;
72156;SDS011;60035;52.122;5.406;2023-05-07T07:55:28;18.25;;;12.23;;
72156;SDS011;60035;52.122;5.406;2023-05-07T07:57:54;19.13;;;12.85;;
72156;SDS011;60035;52.122;5.406;2023-05-07T08:00:20;17.25;;;11.88;;
72156;SDS011;60035;52.122;5.406;2023-05-07T08:02:50;18.08;;;12.77;;
72156;SDS011;60035;52.122;5.406;2023-05-07T08:05:19;20.10;;;12.88;;
72156;SDS011;60035;52.122;5.406;2023-05-07T08:07:46;18.30;;;12.70;;
72156;SDS011;60035;52.122;5.406;2023-05-07T08:10:18;18.75;;;12.60;;
72156;SDS011;60035;52.122;5.406;2023-05-07T08:12:50;19.52;;;13.23;;
72156;SDS011;60035;52.122;5.406;2023-05-07T08:15:20;17.25;;;12.02;;
72156;SDS011;60035;52.122;5.406;2023-05-07T08:17:47;18.60;;;12.02;;
72156;SDS011;60035;52.122;5.406;2023-05-07T08:20:13;18.52;;;12.63;;
72156;SDS011;60035;52.122;5.406;2023-05-07T08:22:40;18.58;;;13.15;;
72156;SDS011;60035;52.122;5.406;2023-05-07T08:25:07;21.70;;;13.77;;
72156;SDS011;60035;52.122;5.406;2023-05-07T08:27:33;21.95;;;13.20;;
72156;SDS011;60035;52.122;5.406;2023-05-07T08:30:00;20.08;;;13.25;;
72156;SDS011;60035;52.122;5.406;2023-05-07T08:32:26;20.65;;;13.25;;
72156;SDS011;60035;52.122;5.406;2023-05-07T08:34:53;19.30;;;13.20;;
72156;SDS011;60035;52.122;5.406;2023-05-07T08:37:20;19.48;;;13.23;;
72156;SDS011;60035;52.122;5.406;2023-05-07T08:39:46;19.80;;;13.48;;
72156;SDS011;60035;52.122;5.406;2023-05-07T08:42:13;20.88;;;13.85;;
72156;SDS011;60035;52.122;5.406;2023-05-07T08:44:44;19.00;;;12.30;;
72156;SDS011;60035;52.122;5.406;2023-05-07T08:47:13;22.92;;;13.77;;
72156;SDS011;60035;52.122;5.406;2023-05-07T08:49:39;19.48;;;13.52;;
72156;SDS011;60035;52.122;5.406;2023-05-07T08:52:06;20.40;;;12.98;;
72156;SDS011;60035;52.122;5.406;2023-05-07T08:54:36;22.30;;;13.98;;
72156;SDS011;60035;52.122;5.406;2023-05-07T08:57:03;18.55;;;12.85;;
72156;SDS011;60035;52.122;5.406;2023-05-07T08:59:29;22.00;;;14.60;;
72156;SDS011;60035;52.122;5.406;2023-05-07T09:01:56;20.95;;;14.10;;
72156;SDS011;60035;52.122;5.406;2023-05-07T09:04:23;18.65;;;13.65;;
72156;SDS011;60035;52.122;5.406;2023-05-07T09:06:49;20.98;;;13.75;;
72156;SDS011;60035;52.122;5.406;2023-05-07T09:09:17;19.95;;;14.35;;
72156;SDS011;60035;52.122;5.406;2023-05-07T09:11:44;20.38;;;13.80;;
72156;SDS011;60035;52.122;5.406;2023-05-07T09:14:11;23.60;;;13.90;;
72156;SDS011;60035;52.122;5.406;2023-05-07T09:16:38;22.10;;;14.52;;
72156;SDS011;60035;52.122;5.406;2023-05-07T09:19:08;22.30;;;14.85;;
72156;SDS011;60035;52.122;5.406;2023-05-07T09:21:34;22.98;;;13.48;;
72156;SDS011;60035;52.122;5.406;2023-05-07T09:24:01;17.55;;;11.82;;
72156;SDS011;60035;52.122;5.406;2023-05-07T09:26:30;17.35;;;11.35;;
72156;SDS011;60035;52.122;5.406;2023-05-07T09:29:00;18.20;;;12.50;;
72156;SDS011;60035;52.122;5.406;2023-05-07T09:31:27;19.15;;;12.32;;
72156;SDS011;60035;52.122;5.406;2023-05-07T09:33:54;19.95;;;12.52;;
72156;SDS011;60035;52.122;5.406;2023-05-07T09:36:27;19.30;;;13.23;;
72156;SDS011;60035;52.122;5.406;2023-05-07T09:38:53;17.45;;;11.57;;
72156;SDS011;60035;52.122;5.406;2023-05-07T09:41:20;18.65;;;12.40;;
72156;SDS011;60035;52.122;5.406;2023-05-07T09:43:47;18.05;;;12.45;;
72156;SDS011;60035;52.122;5.406;2023-05-07T09:46:41;18.25;;;12.40;;
72156;SDS011;60035;52.122;5.406;2023-05-07T09:49:16;18.13;;;12.15;;
72156;SDS011;60035;52.122;5.406;2023-05-07T09:51:50;17.50;;;11.85;;
72156;SDS011;60035;52.122;5.406;2023-05-07T09:54:18;17.58;;;12.07;;
72156;SDS011;60035;52.122;5.406;2023-05-07T09:56:45;17.83;;;12.30;;
72156;SDS011;60035;52.122;5.406;2023-05-07T09:59:14;17.60;;;12.55;;
72156;SDS011;60035;52.122;5.406;2023-05-07T10:01:48;18.25;;;12.90;;
72156;SDS011;60035;52.122;5.406;2023-05-07T10:04:15;20.52;;;13.25;;
72156;SDS011;60035;52.122;5.406;2023-05-07T10:06:43;19.27;;;13.02;;
72156;SDS011;60035;52.122;5.406;2023-05-07T10:09:10;18.77;;;13.48;;
72156;SDS011;60035;52.122;5.406;2023-05-07T10:11:38;18.20;;;11.93;;
72156;SDS011;60035;52.122;5.406;2023-05-07T10:14:16;20.10;;;13.80;;
72156;SDS011;60035;52.122;5.406;2023-05-07T10:16:44;20.63;;;14.38;;
72156;SDS011;60035;52.122;5.406;2023-05-07T10:19:10;19.33;;;13.02;;
72156;SDS011;60035;52.122;5.406;2023-05-07T10:21:39;20.13;;;13.80;;
72156;SDS011;60035;52.122;5.406;2023-05-07T10:24:10;19.85;;;14.00;;
72156;SDS011;60035;52.122;5.406;2023-05-07T10:26:48;22.67;;;14.20;;
72156;SDS011;60035;52.122;5.406;2023-05-07T10:35:17;19.15;;;12.95;;
72156;SDS011;60035;52.122;5.406;2023-05-07T10:37:47;18.75;;;12.32;;
72156;SDS011;60035;52.122;5.406;2023-05-07T10:40:17;20.10;;;12.95;;
72156;SDS011;60035;52.122;5.406;2023-05-07T10:45:21;17.70;;;12.48;;
72156;SDS011;60035;52.122;5.406;2023-05-07T10:51:17;19.05;;;12.40;;
72156;SDS011;60035;52.122;5.406;2023-05-07T10:56:40;17.35;;;12.48;;
72156;SDS011;60035;52.122;5.406;2023-05-07T11:01:50;17.98;;;11.88;;
72156;SDS011;60035;52.122;5.406;2023-05-07T11:04:18;19.85;;;12.70;;
72156;SDS011;60035;52.122;5.406;2023-05-07T11:15:07;21.75;;;13.68;;
72156;SDS011;60035;52.122;5.406;2023-05-07T11:20:44;19.60;;;13.15;;
72156;SDS011;60035;52.122;5.406;2023-05-07T11:23:56;20.08;;;13.70;;
72156;SDS011;60035;52.122;5.406;2023-05-07T11:26:14;18.05;;;12.88;;
72156;SDS011;60035;52.122;5.406;2023-05-07T11:28:42;19.85;;;13.48;;
72156;SDS011;60035;52.122;5.406;2023-05-07T11:31:10;21.08;;;13.70;;
72156;SDS011;60035;52.122;5.406;2023-05-07T11:33:37;20.13;;;13.52;;
72156;SDS011;60035;52.122;5.406;2023-05-07T11:36:05;19.70;;;13.80;;
72156;SDS011;60035;52.122;5.406;2023-05-07T11:38:37;19.60;;;13.35;;
72156;SDS011;60035;52.122;5.406;2023-05-07T11:41:04;19.88;;;13.48;;
72156;SDS011;60035;52.122;5.406;2023-05-07T11:43:31;19.65;;;13.77;;
72156;SDS011;60035;52.122;5.406;2023-05-07T11:46:08;19.40;;;14.13;;
72156;SDS011;60035;52.122;5.406;2023-05-07T11:48:39;20.95;;;13.73;;
72156;SDS011;60035;52.122;5.406;2023-05-07T11:51:06;17.33;;;11.80;;
72156;SDS011;60035;52.122;5.406;2023-05-07T11:53:39;19.02;;;13.50;;
72156;SDS011;60035;52.122;5.406;2023-05-07T11:56:10;21.20;;;13.88;;
72156;SDS011;60035;52.122;5.406;2023-05-07T11:58:39;19.55;;;13.57;;
72156;SDS011;60035;52.122;5.406;2023-05-07T12:01:10;20.48;;;13.95;;
72156;SDS011;60035;52.122;5.406;2023-05-07T12:03:42;20.15;;;13.35;;
72156;SDS011;60035;52.122;5.406;2023-05-07T12:06:11;18.73;;;12.77;;
72156;SDS011;60035;52.122;5.406;2023-05-07T12:08:40;20.67;;;14.05;;
72156;SDS011;60035;52.122;5.406;2023-05-07T12:11:08;20.67;;;14.23;;
72156;SDS011;60035;52.122;5.406;2023-05-07T12:13:37;19.90;;;14.43;;
72156;SDS011;60035;52.122;5.406;2023-05-07T12:16:15;18.33;;;13.10;;
72156;SDS011;60035;52.122;5.406;2023-05-07T12:18:42;19.35;;;14.07;;
72156;SDS011;60035;52.122;5.406;2023-05-07T12:21:09;18.40;;;13.10;;
72156;SDS011;60035;52.122;5.406;2023-05-07T12:23:37;19.60;;;13.63;;
72156;SDS011;60035;52.122;5.406;2023-05-07T12:26:09;19.27;;;13.80;;
72156;SDS011;60035;52.122;5.406;2023-05-07T12:28:37;18.38;;;13.57;;
72156;SDS011;60035;52.122;5.406;2023-05-07T12:31:13;17.15;;;12.63;;
72156;SDS011;60035;52.122;5.406;2023-05-07T12:33:41;19.52;;;12.60;;
72156;SDS011;60035;52.122;5.406;2023-05-07T12:36:08;18.70;;;13.73;;
72156;SDS011;60035;52.122;5.406;2023-05-07T12:38:35;18.60;;;13.38;;
72156;SDS011;60035;52.122;5.406;2023-05-07T12:41:03;19.80;;;14.07;;
72156;SDS011;60035;52.122;5.406;2023-05-07T12:43:36;18.40;;;13.23;;
72156;SDS011;60035;52.122;5.406;2023-05-07T12:46:03;18.25;;;13.15;;
72156;SDS011;60035;52.122;5.406;2023-05-07T12:48:31;18.50;;;13.45;;
72156;SDS011;60035;52.122;5.406;2023-05-07T12:51:01;16.38;;;11.45;;
72156;SDS011;60035;52.122;5.406;2023-05-07T12:53:29;16.27;;;11.15;;
72156;SDS011;60035;52.122;5.406;2023-05-07T12:55:58;15.15;;;10.07;;
72156;SDS011;60035;52.122;5.406;2023-05-07T12:58:29;14.18;;;10.25;;
72156;SDS011;60035;52.122;5.406;2023-05-07T13:01:00;12.90;;;6.75;;
72156;SDS011;60035;52.122;5.406;2023-05-07T13:03:30;12.98;;;8.20;;
72156;SDS011;60035;52.122;5.406;2023-05-07T13:06:00;12.90;;;7.90;;
72156;SDS011;60035;52.122;5.406;2023-05-07T13:08:29;11.60;;;7.53;;
72156;SDS011;60035;52.122;5.406;2023-05-07T13:11:00;13.40;;;8.40;;
72156;SDS011;60035;52.122;5.406;2023-05-07T13:13:30;13.73;;;9.07;;
72156;SDS011;60035;52.122;5.406;2023-05-07T13:15:58;12.05;;;7.90;;
72156;SDS011;60035;52.122;5.406;2023-05-07T13:18:29;13.88;;;7.90;;
72156;SDS011;60035;52.122;5.406;2023-05-07T13:21:00;12.77;;;8.55;;
72156;SDS011;60035;52.122;5.406;2023-05-07T13:23:30;12.52;;;8.75;;
72156;SDS011;60035;52.122;5.406;2023-05-07T13:25:57;14.30;;;9.23;;
72156;SDS011;60035;52.122;5.406;2023-05-07T13:28:23;14.10;;;9.35;;
72156;SDS011;60035;52.122;5.406;2023-05-07T13:30:50;13.50;;;8.60;;
72156;SDS011;60035;52.122;5.406;2023-05-07T13:33:18;11.82;;;7.68;;
72156;SDS011;60035;52.122;5.406;2023-05-07T13:35:44;14.43;;;9.38;;
72156;SDS011;60035;52.122;5.406;2023-05-07T13:38:11;15.40;;;9.68;;
72156;SDS011;60035;52.122;5.406;2023-05-07T13:40:37;12.57;;;8.32;;
72156;SDS011;60035;52.122;5.406;2023-05-07T13:43:05;14.70;;;9.45;;
72156;SDS011;60035;52.122;5.406;2023-05-07T13:45:31;12.75;;;7.75;;
72156;SDS011;60035;52.122;5.406;2023-05-07T13:47:58;13.43;;;8.68;;
72156;SDS011;60035;52.122;5.406;2023-05-07T13:50:25;13.02;;;7.95;;
72156;SDS011;60035;52.122;5.406;2023-05-07T13:52:53;15.32;;;10.05;;
72156;SDS011;60035;52.122;5.406;2023-05-07T13:55:20;13.40;;;9.48;;
72156;SDS011;60035;52.122;5.406;2023-05-07T13:57:47;14.90;;;9.85;;
72156;SDS011;60035;52.122;5.406;2023-05-07T14:00:14;15.48;;;10.70;;
72156;SDS011;60035;52.122;5.406;2023-05-07T14:02:42;16.17;;;11.38;;
72156;SDS011;60035;52.122;5.406;2023-05-07T14:05:15;17.85;;;11.95;;
72156;SDS011;60035;52.122;5.406;2023-05-07T14:07:47;15.90;;;11.25;;
72156;SDS011;60035;52.122;5.406;2023-05-07T14:10:15;15.93;;;10.35;;
72156;SDS011;60035;52.122;5.406;2023-05-07T14:12:41;17.33;;;12.38;;
72156;SDS011;60035;52.122;5.406;2023-05-07T14:15:14;15.88;;;11.38;;
72156;SDS011;60035;52.122;5.406;2023-05-07T14:17:43;19.58;;;11.52;;
72156;SDS011;60035;52.122;5.406;2023-05-07T14:20:10;17.40;;;12.02;;
72156;SDS011;60035;52.122;5.406;2023-05-07T14:22:38;17.73;;;11.88;;
72156;SDS011;60035;52.122;5.406;2023-05-07T14:25:07;16.58;;;10.90;;
72156;SDS011;60035;52.122;5.406;2023-05-07T14:27:35;15.05;;;11.02;;
72156;SDS011;60035;52.122;5.406;2023-05-07T14:30:02;16.90;;;12.15;;
72156;SDS011;60035;52.122;5.406;2023-05-07T14:32:28;17.73;;;12.65;;
72156;SDS011;60035;52.122;5.406;2023-05-07T14:34:58;18.33;;;11.30;;
72156;SDS011;60035;52.122;5.406;2023-05-07T14:37:27;15.43;;;10.30;;
72156;SDS011;60035;52.122;5.406;2023-05-07T14:39:54;16.85;;;11.70;;
72156;SDS011;60035;52.122;5.406;2023-05-07T14:42:33;17.75;;;11.80;;
72156;SDS011;60035;52.122;5.406;2023-05-07T14:45:00;16.77;;;11.45;;
72156;SDS011;60035;52.122;5.406;2023-05-07T14:47:26;17.02;;;11.57;;
72156;SDS011;60035;52.122;5.406;2023-05-07T14:49:53;17.40;;;10.98;;
72156;SDS011;60035;52.122;5.406;2023-05-07T14:52:20;14.77;;;10.60;;
72156;SDS011;60035;52.122;5.406;2023-05-07T14:54:47;16.20;;;10.55;;
72156;SDS011;60035;52.122;5.406;2023-05-07T14:57:13;15.20;;;10.38;;
72156;SDS011;60035;52.122;5.406;2023-05-07T14:59:42;16.95;;;10.77;;